Time;durP1;ratioP1;P1;durP2;ratioP2;P2;SDS_P1;SDS_P2;PMS_P1;PMS_P2;Temp;Humidity;BMP_temperature;BMP_pressure;BME280_temperature;BME280_humidity;BME280_pressure;Samples;Min_cycle;Max_cycle;Signal;HPM_P1;HPM_P2
2022/01/11 00:01:55;;;;;;;;;;;9.30;99.90;;;;;;5017863;28;19909;-72
2022/01/11 00:04:28;;;;;;;;;;;9.30;99.90;;;;;;5017964;28;20438;-72
2022/01/11 00:06:54;;;;;;;;;;;9.30;99.90;;;;;;5017931;28;20024;-73
2022/01/11 00:10:01;;;;;;;;;;;9.30;99.90;;;;;;5017609;28;19953;-72
2022/01/11 00:12:08;;;;;;;;;;;9.30;99.90;;;;;;5012324;28;19917;-72
2022/01/11 00:14:35;;;;;;;;;;;9.30;99.90;;;;;;5018038;28;19913;-72
2022/01/11 00:17:00;;;;;;;;;;;9.30;99.90;;;;;;5016571;28;19916;-72
2022/01/11 00:19:28;;;;;;;;;;;9.30;99.90;;;;;;5018082;28;20368;-72
2022/01/11 00:21:54;;;;;;;;;;;9.30;99.90;;;;;;5017812;28;19909;-72
2022/01/11 00:24:29;;;;;;;;;;;9.30;99.90;;;;;;5017425;28;19960;-72
2022/01/11 00:27:08;;;;;;;;;;;9.30;99.90;;;;;;5017950;28;20284;-72
2022/01/11 00:29:36;;;;;;;;;;;9.30;99.90;;;;;;5017710;28;19909;-72
2022/01/11 00:32:07;;;;;;;;;;;9.30;99.90;;;;;;5020622;28;19917;-72
2022/01/11 00:34:56;;;;;;;;;;;9.30;99.90;;;;;;5019735;28;20004;-71
2022/01/11 00:37:19;;;;;;;;;;;9.20;99.90;;;;;;5019125;28;19916;-72
2022/01/11 00:39:45;;;;;;;;;;;9.30;99.90;;;;;;5021021;28;19949;-72
2022/01/11 00:42:15;;;;;;;;;;;9.30;99.90;;;;;;5021278;28;19917;-72
2022/01/11 00:44:41;;;;;;;;;;;9.20;99.90;;;;;;5021275;28;19910;-72
2022/01/11 00:47:07;;;;;;;;;;;9.20;99.90;;;;;;5028496;28;19916;-72
2022/01/11 00:49:34;;;;;;;;;;;9.20;99.90;;;;;;5021428;28;19909;-72
2022/01/11 00:51:59;;;;;;;;;;;9.30;99.90;;;;;;5021141;28;19909;-72
2022/01/11 00:54:25;;;;;;;;;;;9.30;99.90;;;;;;5020558;28;19919;-72
2022/01/11 00:56:51;;;;;;;;;;;9.20;99.90;;;;;;5021006;28;19910;-72
2022/01/11 00:59:17;;;;;;;;;;;9.20;99.90;;;;;;5020983;28;20395;-72
2022/01/11 01:01:42;;;;;;;;;;;9.20;99.90;;;;;;5021040;28;19909;-72
2022/01/11 01:04:08;;;;;;;;;;;9.20;99.90;;;;;;5020873;28;19910;-72
2022/01/11 01:06:34;;;;;;;;;;;9.20;99.90;;;;;;5020955;28;19917;-72
2022/01/11 01:09:00;;;;;;;;;;;9.20;99.90;;;;;;5020567;28;19909;-72
2022/01/11 01:11:26;;;;;;;;;;;9.20;99.90;;;;;;5020986;28;20292;-72
2022/01/11 01:13:52;;;;;;;;;;;9.20;99.90;;;;;;5020547;28;19910;-72
2022/01/11 01:16:17;;;;;;;;;;;9.20;99.90;;;;;;5019305;28;19913;-72
2022/01/11 01:18:43;;;;;;;;;;;9.20;99.90;;;;;;5020904;28;19910;-72
2022/01/11 01:21:09;;;;;;;;;;;9.20;99.90;;;;;;5020578;28;19916;-72
2022/01/11 01:23:35;;;;;;;;;;;9.20;99.90;;;;;;5018932;28;19909;-72
2022/01/11 01:26:01;;;;;;;;;;;9.20;99.90;;;;;;5020234;28;19921;-73
2022/01/11 01:28:27;;;;;;;;;;;9.20;99.90;;;;;;5020358;28;20403;-72
2022/01/11 01:30:55;;;;;;;;;;;9.20;99.90;;;;;;5020358;28;19909;-72
2022/01/11 01:33:21;;;;;;;;;;;9.10;99.90;;;;;;5026411;28;20428;-73
2022/01/11 01:35:53;;;;;;;;;;;9.10;99.90;;;;;;5020217;28;20004;-72
2022/01/11 01:38:24;;;;;;;;;;;9.10;99.90;;;;;;5020171;28;20356;-72
2022/01/11 01:40:51;;;;;;;;;;;9.20;99.90;;;;;;5020070;28;19989;-73
2022/01/11 01:43:17;;;;;;;;;;;9.10;99.90;;;;;;5020290;28;19963;-72
2022/01/11 01:45:44;;;;;;;;;;;9.10;99.90;;;;;;5020030;28;19909;-72
2022/01/11 01:48:10;;;;;;;;;;;9.10;99.90;;;;;;5026495;28;19909;-72
2022/01/11 01:50:36;;;;;;;;;;;9.10;99.90;;;;;;5020104;28;19916;-72
2022/01/11 01:53:03;;;;;;;;;;;9.10;99.90;;;;;;5019799;28;19910;-72
2022/01/11 01:55:28;;;;;;;;;;;9.10;99.90;;;;;;5019623;28;20296;-72
2022/01/11 01:57:54;;;;;;;;;;;9.20;99.90;;;;;;5020074;28;19909;-72
2022/01/11 02:00:20;;;;;;;;;;;9.10;99.90;;;;;;5019885;28;19964;-72
2022/01/11 02:02:46;;;;;;;;;;;9.10;99.90;;;;;;5019847;28;19916;-72
2022/01/11 02:05:11;;;;;;;;;;;9.10;99.90;;;;;;5019699;28;20356;-72
2022/01/11 02:07:37;;;;;;;;;;;9.10;99.90;;;;;;5019809;28;19914;-72
2022/01/11 02:10:04;;;;;;;;;;;9.10;99.90;;;;;;5017898;28;19918;-72
2022/01/11 02:12:30;;;;;;;;;;;9.10;99.90;;;;;;5019684;28;19917;-72
2022/01/11 02:14:56;;;;;;;;;;;9.10;99.90;;;;;;5019408;28;19922;-72
2022/01/11 02:17:21;;;;;;;;;;;9.10;99.90;;;;;;5019658;28;19920;-72
2022/01/11 02:19:47;;;;;;;;;;;9.00;99.90;;;;;;5019480;28;19913;-72
2022/01/11 02:22:13;;;;;;;;;;;9.10;99.90;;;;;;5019495;28;20004;-72
2022/01/11 02:24:38;;;;;;;;;;;9.00;99.90;;;;;;5018914;28;19909;-72
2022/01/11 02:27:04;;;;;;;;;;;9.00;99.90;;;;;;5019558;28;19914;-72
2022/01/11 02:29:30;;;;;;;;;;;9.00;99.90;;;;;;5019154;28;19909;-72
2022/01/11 02:31:55;;;;;;;;;;;9.10;99.90;;;;;;5021539;28;19996;-72
2022/01/11 02:34:21;;;;;;;;;;;9.00;99.90;;;;;;5023031;28;19929;-72
2022/01/11 02:36:47;;;;;;;;;;;9.00;99.90;;;;;;5019569;28;19909;-72
2022/01/11 02:39:13;;;;;;;;;;;9.00;99.90;;;;;;5018603;28;19917;-72
2022/01/11 02:41:48;;;;;;;;;;;9.00;99.90;;;;;;5019350;28;19932;-72
2022/01/11 02:44:13;;;;;;;;;;;9.00;99.90;;;;;;5018877;28;19913;-72
2022/01/11 02:46:39;;;;;;;;;;;9.00;99.90;;;;;;5023863;28;19915;-72
2022/01/11 02:49:05;;;;;;;;;;;9.00;99.90;;;;;;5021826;28;19910;-72
2022/01/11 02:51:30;;;;;;;;;;;9.00;99.80;;;;;;5019214;28;19910;-72
2022/01/11 02:53:57;;;;;;;;;;;9.00;99.80;;;;;;5018403;28;19910;-72
2022/01/11 02:56:23;;;;;;;;;;;9.00;99.80;;;;;;5018948;28;20392;-72
2022/01/11 02:58:49;;;;;;;;;;;9.00;99.70;;;;;;5018180;28;19910;-72
2022/01/11 03:01:15;;;;;;;;;;;9.00;99.70;;;;;;5019013;28;19909;-72
2022/01/11 03:03:41;;;;;;;;;;;9.00;99.70;;;;;;5018677;28;19910;-72
2022/01/11 03:06:06;;;;;;;;;;;9.00;99.70;;;;;;5017410;28;20435;-72
2022/01/11 03:08:33;;;;;;;;;;;9.00;99.70;;;;;;5018229;28;19910;-72
2022/01/11 03:11:00;;;;;;;;;;;9.00;99.60;;;;;;5018537;28;19949;-72
2022/01/11 03:13:25;;;;;;;;;;;9.00;99.60;;;;;;5018528;28;19910;-72
2022/01/11 03:15:53;;;;;;;;;;;9.00;99.60;;;;;;5018501;28;19913;-72
2022/01/11 03:18:19;;;;;;;;;;;9.00;99.60;;;;;;5018465;28;19909;-72
2022/01/11 03:20:45;;;;;;;;;;;9.00;99.60;;;;;;5018489;28;19916;-72
2022/01/11 03:23:12;;;;;;;;;;;9.00;99.60;;;;;;5018074;28;19910;-72
2022/01/11 03:25:37;;;;;;;;;;;9.00;99.70;;;;;;5018269;28;19988;-72
2022/01/11 03:28:03;;;;;;;;;;;9.00;99.70;;;;;;5016859;28;19909;-72
2022/01/11 03:30:30;;;;;;;;;;;9.00;99.70;;;;;;5018423;28;19909;-72
2022/01/11 03:32:56;;;;;;;;;;;9.00;99.60;;;;;;5024487;28;19910;-72
2022/01/11 03:35:22;;;;;;;;;;;9.00;99.60;;;;;;5018332;28;19925;-72
2022/01/11 03:37:47;;;;;;;;;;;9.00;99.60;;;;;;5017897;28;20316;-72
2022/01/11 03:40:14;;;;;;;;;;;9.00;99.60;;;;;;5018287;28;20042;-72
2022/01/11 03:42:40;;;;;;;;;;;9.00;99.70;;;;;;5018003;28;20391;-72
2022/01/11 03:45:07;;;;;;;;;;;9.00;99.70;;;;;;5018265;28;19909;-72
2022/01/11 03:47:33;;;;;;;;;;;9.00;99.70;;;;;;5025947;28;19910;-73
2022/01/11 03:49:59;;;;;;;;;;;9.00;99.70;;;;;;5018127;28;19916;-72
2022/01/11 03:52:25;;;;;;;;;;;9.00;99.80;;;;;;5017853;28;19957;-72
2022/01/11 03:57:26;;;;;;;;;;;9.00;99.80;;;;;;5018292;28;19917;-72
2022/01/11 03:59:52;;;;;;;;;;;9.00;99.90;;;;;;5018147;28;19909;-72
2022/01/11 04:02:18;;;;;;;;;;;8.90;99.80;;;;;;5017803;28;19920;-73
2022/01/11 04:04:44;;;;;;;;;;;8.90;99.80;;;;;;5018060;28;19909;-72
2022/01/11 04:07:09;;;;;;;;;;;8.90;99.90;;;;;;5017817;28;20339;-72
2022/01/11 04:09:35;;;;;;;;;;;9.00;99.90;;;;;;5017646;28;19916;-72
2022/01/11 04:12:01;;;;;;;;;;;8.90;99.90;;;;;;5021069;28;19909;-72
2022/01/11 04:14:26;;;;;;;;;;;9.00;99.90;;;;;;5021753;28;20004;-72
2022/01/11 04:16:52;;;;;;;;;;;8.90;99.90;;;;;;5021656;28;19910;-72
2022/01/11 04:19:19;;;;;;;;;;;8.90;99.90;;;;;;5021748;28;19944;-72
2022/01/11 04:21:45;;;;;;;;;;;9.00;99.90;;;;;;5021698;28;20384;-72
2022/01/11 04:24:12;;;;;;;;;;;8.90;99.80;;;;;;5021563;28;19921;-72
2022/01/11 04:26:38;;;;;;;;;;;9.00;99.80;;;;;;5021396;28;19929;-73
2022/01/11 04:29:03;;;;;;;;;;;9.00;99.80;;;;;;5021520;28;19915;-72
2022/01/11 04:31:29;;;;;;;;;;;9.00;99.70;;;;;;5021437;28;19975;-72
2022/01/11 04:33:57;;;;;;;;;;;9.00;99.70;;;;;;5026878;28;20400;-72
2022/01/11 04:36:23;;;;;;;;;;;9.00;99.70;;;;;;5021435;28;19975;-72
2022/01/11 04:38:48;;;;;;;;;;;9.00;99.60;;;;;;5021199;28;20265;-72
2022/01/11 04:41:14;;;;;;;;;;;9.00;99.60;;;;;;5021271;28;19916;-72
2022/01/11 04:43:40;;;;;;;;;;;9.00;99.60;;;;;;5021272;28;19909;-72
2022/01/11 04:46:06;;;;;;;;;;;9.00;99.60;;;;;;5021517;28;19960;-72
2022/01/11 04:48:32;;;;;;;;;;;9.10;99.60;;;;;;5028743;28;20339;-72
2022/01/11 04:51:02;;;;;;;;;;;9.00;99.60;;;;;;5021016;28;19921;-72
2022/01/11 04:53:28;;;;;;;;;;;9.00;99.70;;;;;;5020887;28;19914;-72
2022/01/11 04:55:54;;;;;;;;;;;9.00;99.70;;;;;;5020875;28;20055;-72
2022/01/11 04:58:20;;;;;;;;;;;9.00;99.70;;;;;;5021032;28;19909;-72
2022/01/11 05:00:46;;;;;;;;;;;9.00;99.70;;;;;;5021004;28;20001;-72
2022/01/11 05:03:11;;;;;;;;;;;9.00;99.70;;;;;;5020939;28;19909;-72
2022/01/11 05:05:37;;;;;;;;;;;9.00;99.70;;;;;;5020770;28;20403;-72
2022/01/11 05:08:05;;;;;;;;;;;9.00;99.70;;;;;;5020602;28;20442;-72
2022/01/11 05:10:30;;;;;;;;;;;9.00;99.70;;;;;;5020700;28;19910;-72
2022/01/11 05:12:56;;;;;;;;;;;9.00;99.70;;;;;;5020898;28;19916;-72
2022/01/11 05:15:25;;;;;;;;;;;9.00;99.80;;;;;;5020620;28;20376;-72
2022/01/11 05:17:51;;;;;;;;;;;9.00;99.80;;;;;;5019303;28;19910;-72
2022/01/11 05:20:17;;;;;;;;;;;8.90;99.80;;;;;;5020840;28;19996;-72
2022/01/11 05:22:44;;;;;;;;;;;9.00;99.90;;;;;;5019664;28;19909;-72
2022/01/11 05:25:12;;;;;;;;;;;9.00;99.90;;;;;;5020470;28;19921;-72
2022/01/11 05:27:38;;;;;;;;;;;8.90;99.90;;;;;;5020556;28;19916;-72
2022/01/11 05:30:04;;;;;;;;;;;9.00;99.90;;;;;;5020719;28;20000;-72
2022/01/11 05:32:30;;;;;;;;;;;8.90;99.90;;;;;;5026482;28;19915;-72
2022/01/11 05:34:55;;;;;;;;;;;8.90;99.90;;;;;;5020506;28;20007;-72
2022/01/11 05:37:21;;;;;;;;;;;8.90;99.90;;;;;;5020266;28;19914;-72
2022/01/11 05:39:46;;;;;;;;;;;8.90;99.90;;;;;;5019989;28;19918;-72
2022/01/11 05:42:13;;;;;;;;;;;8.90;99.90;;;;;;5020107;28;19917;-72
2022/01/11 05:44:38;;;;;;;;;;;8.90;99.80;;;;;;5018834;28;19910;-73
2022/01/11 05:47:04;;;;;;;;;;;8.90;99.80;;;;;;5027644;28;19909;-72
2022/01/11 05:49:30;;;;;;;;;;;8.90;99.80;;;;;;5020246;28;19909;-72
2022/01/11 05:51:55;;;;;;;;;;;9.00;99.80;;;;;;5019878;28;19909;-72
2022/01/11 05:54:21;;;;;;;;;;;8.90;99.80;;;;;;5019522;28;20391;-72
2022/01/11 05:56:47;;;;;;;;;;;8.90;99.70;;;;;;5019897;28;20280;-72
2022/01/11 05:59:13;;;;;;;;;;;8.90;99.80;;;;;;5019785;28;19916;-75
2022/01/11 06:01:38;;;;;;;;;;;8.90;99.80;;;;;;5018426;28;19913;-72
2022/01/11 06:04:04;;;;;;;;;;;8.90;99.90;;;;;;5019731;28;19910;-73
2022/01/11 06:06:29;;;;;;;;;;;8.90;99.90;;;;;;5019685;28;20300;-74
2022/01/11 06:08:55;;;;;;;;;;;8.90;99.90;;;;;;5019014;28;20345;-74
2022/01/11 06:11:21;;;;;;;;;;;8.90;99.90;;;;;;5019629;28;19937;-73
2022/01/11 06:13:50;;;;;;;;;;;8.90;99.90;;;;;;5019514;28;19913;-73
2022/01/11 06:16:16;;;;;;;;;;;8.90;99.90;;;;;;5018116;28;19914;-73
2022/01/11 06:18:43;;;;;;;;;;;8.90;99.90;;;;;;5019610;28;20320;-73
2022/01/11 06:21:09;;;;;;;;;;;8.90;99.90;;;;;;5019473;28;19910;-74
2022/01/11 06:23:35;;;;;;;;;;;8.90;99.90;;;;;;5019271;28;19932;-77
2022/01/11 06:26:00;;;;;;;;;;;8.90;99.90;;;;;;5019092;28;19921;-72
2022/01/11 06:28:26;;;;;;;;;;;8.90;99.90;;;;;;5019435;28;19910;-75
2022/01/11 06:30:51;;;;;;;;;;;8.90;99.90;;;;;;5019299;28;19916;-74
2022/01/11 06:33:17;;;;;;;;;;;8.90;99.90;;;;;;5025393;28;19913;-75
2022/01/11 06:35:43;;;;;;;;;;;8.80;99.90;;;;;;5018290;28;19913;-72
2022/01/11 06:38:08;;;;;;;;;;;8.90;99.90;;;;;;5019120;28;19916;-72
2022/01/11 06:40:34;;;;;;;;;;;8.90;99.90;;;;;;5018907;28;19910;-72
2022/01/11 06:43:00;;;;;;;;;;;8.80;99.90;;;;;;5019220;28;20368;-72
2022/01/11 06:45:26;;;;;;;;;;;8.80;99.90;;;;;;5019107;28;20004;-72
2022/01/11 06:47:53;;;;;;;;;;;8.80;99.90;;;;;;5027131;28;19956;-72
2022/01/11 06:50:19;;;;;;;;;;;8.80;99.90;;;;;;5018793;28;20396;-72
2022/01/11 06:52:44;;;;;;;;;;;8.80;99.90;;;;;;5018428;28;19913;-72
2022/01/11 06:55:11;;;;;;;;;;;8.80;99.90;;;;;;5017322;28;19921;-72
2022/01/11 06:57:37;;;;;;;;;;;8.80;99.90;;;;;;5018417;28;20289;-72
2022/01/11 07:00:04;;;;;;;;;;;8.80;99.90;;;;;;5017625;28;19916;-72
2022/01/11 07:02:30;;;;;;;;;;;8.80;99.90;;;;;;5018864;28;20372;-72
2022/01/11 07:04:56;;;;;;;;;;;8.80;99.90;;;;;;5018302;28;19931;-72
2022/01/11 07:07:22;;;;;;;;;;;8.80;99.90;;;;;;5017933;28;19909;-72
2022/01/11 07:09:48;;;;;;;;;;;8.80;99.90;;;;;;5018237;28;19966;-72
2022/01/11 07:12:13;;;;;;;;;;;8.80;99.90;;;;;;5018613;28;19932;-72
2022/01/11 07:14:39;;;;;;;;;;;8.80;99.90;;;;;;5018623;28;20012;-72
2022/01/11 07:17:05;;;;;;;;;;;8.80;99.90;;;;;;5018842;28;19913;-72
2022/01/11 07:19:30;;;;;;;;;;;8.80;99.90;;;;;;5018576;28;19996;-72
2022/01/11 07:21:59;;;;;;;;;;;8.80;99.90;;;;;;5018623;28;19916;-72
2022/01/11 07:24:24;;;;;;;;;;;8.80;99.90;;;;;;5017831;28;20280;-72
2022/01/11 07:26:50;;;;;;;;;;;8.80;99.90;;;;;;5018264;28;19928;-72
2022/01/11 07:29:16;;;;;;;;;;;8.80;99.90;;;;;;5018350;28;19909;-72
2022/01/11 07:31:42;;;;;;;;;;;8.90;99.90;;;;;;5018753;28;19956;-72
2022/01/11 07:34:08;;;;;;;;;;;8.80;99.90;;;;;;5023994;28;19917;-72
2022/01/11 07:36:34;;;;;;;;;;;8.80;99.90;;;;;;5018766;28;19909;-72
2022/01/11 07:39:00;;;;;;;;;;;8.80;99.90;;;;;;5017866;28;19916;-72
2022/01/11 07:41:25;;;;;;;;;;;8.80;99.90;;;;;;5018501;28;19909;-72
2022/01/11 07:43:51;;;;;;;;;;;8.80;99.90;;;;;;5018001;28;19948;-72
2022/01/11 07:46:17;;;;;;;;;;;8.80;99.90;;;;;;5019639;28;20425;-72
2022/01/11 07:48:42;;;;;;;;;;;8.90;99.90;;;;;;5023838;28;19910;-72
2022/01/11 07:51:08;;;;;;;;;;;8.90;99.90;;;;;;5018465;28;19979;-72
2022/01/11 07:53:34;;;;;;;;;;;8.90;99.90;;;;;;5017974;28;19932;-72
2022/01/11 07:55:59;;;;;;;;;;;8.90;99.90;;;;;;5017989;28;20351;-72
2022/01/11 07:58:25;;;;;;;;;;;8.90;99.90;;;;;;5017967;28;20012;-72
2022/01/11 08:00:51;;;;;;;;;;;8.90;99.90;;;;;;5018213;28;19909;-72
2022/01/11 08:03:17;;;;;;;;;;;8.90;99.90;;;;;;5016603;28;19975;-72
2022/01/11 08:05:43;;;;;;;;;;;8.90;99.90;;;;;;5018113;28;20017;-72
2022/01/11 08:08:08;;;;;;;;;;;8.90;99.90;;;;;;5017672;28;19909;-72
2022/01/11 08:10:34;;;;;;;;;;;8.90;99.90;;;;;;5017809;28;19916;-72
2022/01/11 08:13:05;;;;;;;;;;;8.90;99.90;;;;;;5017921;28;19945;-72
2022/01/11 08:15:30;;;;;;;;;;;8.90;99.90;;;;;;5017904;28;19949;-72
2022/01/11 08:17:56;;;;;;;;;;;8.90;99.90;;;;;;5017755;28;19916;-72
2022/01/11 08:20:22;;;;;;;;;;;8.90;99.90;;;;;;5018011;28;19968;-72
2022/01/11 08:22:48;;;;;;;;;;;8.90;99.90;;;;;;5017522;28;19920;-72
2022/01/11 08:25:14;;;;;;;;;;;8.90;99.90;;;;;;5017468;28;19921;-72
2022/01/11 08:27:40;;;;;;;;;;;8.90;99.90;;;;;;5017728;28;20627;-72
2022/01/11 08:30:06;;;;;;;;;;;8.90;99.90;;;;;;5018025;28;20001;-72
2022/01/11 08:32:32;;;;;;;;;;;8.90;99.90;;;;;;5023783;28;19909;-72
2022/01/11 08:34:57;;;;;;;;;;;8.90;99.90;;;;;;5018093;28;19920;-72
2022/01/11 08:37:23;;;;;;;;;;;8.90;99.90;;;;;;5017659;28;19910;-72
2022/01/11 08:39:49;;;;;;;;;;;8.90;99.90;;;;;;5017522;28;19917;-72
2022/01/11 08:42:14;;;;;;;;;;;8.90;99.90;;;;;;5017399;28;19910;-72
2022/01/11 08:44:41;;;;;;;;;;;9.00;99.90;;;;;;5017859;28;19909;-72
2022/01/11 08:47:07;;;;;;;;;;;9.00;99.90;;;;;;5025543;28;19909;-72
2022/01/11 08:49:33;;;;;;;;;;;9.00;99.90;;;;;;5018104;28;20438;-72
2022/01/11 08:51:59;;;;;;;;;;;9.00;99.90;;;;;;5017682;28;19916;-72
2022/01/11 08:54:24;;;;;;;;;;;9.00;99.90;;;;;;5017095;28;19914;-72
2022/01/11 08:56:53;;;;;;;;;;;9.00;99.90;;;;;;5017594;28;20000;-72
2022/01/11 08:59:18;;;;;;;;;;;9.00;99.90;;;;;;5021088;28;19909;-72
2022/01/11 09:01:44;;;;;;;;;;;9.00;99.90;;;;;;5019588;28;20398;-72
2022/01/11 09:04:10;;;;;;;;;;;9.00;99.90;;;;;;5019597;28;19909;-72
2022/01/11 09:06:35;;;;;;;;;;;9.00;99.90;;;;;;5021066;28;19948;-72
2022/01/11 09:09:03;;;;;;;;;;;9.00;99.90;;;;;;5020659;28;19913;-72
2022/01/11 09:11:28;;;;;;;;;;;9.00;99.90;;;;;;5020914;28;19920;-72
2022/01/11 09:13:54;;;;;;;;;;;9.00;99.90;;;;;;5020885;28;19910;-72
2022/01/11 09:16:22;;;;;;;;;;;9.00;99.90;;;;;;5020746;28;19914;-72
2022/01/11 09:18:48;;;;;;;;;;;9.00;99.90;;;;;;5020599;28;19916;-72
2022/01/11 09:21:15;;;;;;;;;;;9.00;99.90;;;;;;5020668;28;19909;-72
2022/01/11 09:23:40;;;;;;;;;;;9.00;99.90;;;;;;5020364;28;19917;-72
2022/01/11 09:26:06;;;;;;;;;;;9.00;99.90;;;;;;5020306;28;19922;-72
2022/01/11 09:28:32;;;;;;;;;;;9.00;99.90;;;;;;5020623;28;19941;-72
2022/01/11 09:30:57;;;;;;;;;;;9.00;99.90;;;;;;5020457;28;19910;-72
2022/01/11 09:33:23;;;;;;;;;;;9.00;99.90;;;;;;5026797;28;19916;-72
2022/01/11 09:35:49;;;;;;;;;;;9.00;99.90;;;;;;5020502;28;19914;-72
2022/01/11 09:38:15;;;;;;;;;;;9.00;99.90;;;;;;5020167;28;19909;-72
2022/01/11 09:40:40;;;;;;;;;;;9.00;99.90;;;;;;5020121;28;19910;-72
2022/01/11 09:43:06;;;;;;;;;;;9.00;99.90;;;;;;5020245;28;19910;-72
2022/01/11 09:45:32;;;;;;;;;;;9.00;99.90;;;;;;5020160;28;19909;-72
2022/01/11 09:47:58;;;;;;;;;;;9.00;99.90;;;;;;5027607;28;19948;-72
2022/01/11 09:50:23;;;;;;;;;;;9.00;99.90;;;;;;5020196;28;19910;-72
2022/01/11 09:52:50;;;;;;;;;;;9.00;99.90;;;;;;5019773;28;19932;-72
2022/01/11 09:55:16;;;;;;;;;;;9.00;99.90;;;;;;5019771;28;19920;-72
2022/01/11 09:57:42;;;;;;;;;;;9.10;99.90;;;;;;5020093;28;19909;-72
2022/01/11 10:00:09;;;;;;;;;;;9.10;99.90;;;;;;5020122;28;19913;-72
2022/01/11 10:02:35;;;;;;;;;;;9.10;99.90;;;;;;5019768;28;20330;-72
2022/01/11 10:05:06;;;;;;;;;;;9.10;99.90;;;;;;5019759;28;19975;-72
2022/01/11 10:07:36;;;;;;;;;;;9.10;99.90;;;;;;5019601;28;19910;-72
2022/01/11 10:10:03;;;;;;;;;;;9.10;99.90;;;;;;5018022;28;19909;-72
2022/01/11 10:12:39;;;;;;;;;;;9.20;99.90;;;;;;5019636;28;19909;-72
2022/01/11 10:15:05;;;;;;;;;;;9.20;99.90;;;;;;5019663;28;19964;-72
2022/01/11 10:17:37;;;;;;;;;;;9.20;99.90;;;;;;5019566;28;19910;-72
2022/01/11 10:20:14;;;;;;;;;;;9.20;99.90;;;;;;5019507;28;19913;-72
2022/01/11 10:22:47;;;;;;;;;;;9.20;99.90;;;;;;5019128;28;20004;-72
2022/01/11 10:25:13;;;;;;;;;;;9.30;99.90;;;;;;5019278;28;19925;-72
2022/01/11 10:27:38;;;;;;;;;;;9.20;99.90;;;;;;5019196;28;20300;-72
2022/01/11 10:30:08;;;;;;;;;;;9.20;99.90;;;;;;5019625;28;19913;-72
2022/01/11 10:32:35;;;;;;;;;;;9.20;99.90;;;;;;5025557;28;19909;-72
2022/01/11 10:35:03;;;;;;;;;;;9.20;99.90;;;;;;5019372;28;19921;-72
2022/01/11 10:37:32;;;;;;;;;;;9.20;99.90;;;;;;5018814;28;19921;-72
2022/01/11 10:40:02;;;;;;;;;;;9.20;99.90;;;;;;5019219;28;19984;-72
2022/01/11 10:42:32;;;;;;;;;;;9.20;99.90;;;;;;5018944;28;19913;-72
2022/01/11 10:44:59;;;;;;;;;;;9.20;99.90;;;;;;5019096;28;20368;-72
2022/01/11 10:47:29;;;;;;;;;;;9.30;99.90;;;;;;5027224;28;20351;-72
2022/01/11 10:49:56;;;;;;;;;;;9.20;99.90;;;;;;5019413;28;19973;-72
2022/01/11 10:52:23;;;;;;;;;;;9.30;99.90;;;;;;5018773;28;19909;-72
2022/01/11 10:54:49;;;;;;;;;;;9.30;99.90;;;;;;5018803;28;19967;-72
2022/01/11 10:57:19;;;;;;;;;;;9.30;99.90;;;;;;5018625;28;19989;-72
2022/01/11 11:00:04;;;;;;;;;;;9.30;99.90;;;;;;5018826;28;19913;-72
2022/01/11 11:02:29;;;;;;;;;;;9.30;99.90;;;;;;5018736;28;19909;-72
2022/01/11 11:04:57;;;;;;;;;;;9.30;99.90;;;;;;5018736;28;19909;-72
2022/01/11 11:07:25;;;;;;;;;;;9.30;99.90;;;;;;5017169;28;19953;-72
2022/01/11 11:09:51;;;;;;;;;;;9.30;99.90;;;;;;5018374;28;20332;-72
2022/01/11 11:12:21;;;;;;;;;;;9.30;99.90;;;;;;5018726;28;19915;-72
2022/01/11 11:14:48;;;;;;;;;;;9.30;99.90;;;;;;5018332;28;19956;-72
2022/01/11 11:17:27;;;;;;;;;;;9.30;99.90;;;;;;5018722;28;19916;-72
2022/01/11 11:20:04;;;;;;;;;;;9.30;99.90;;;;;;5017896;28;19910;-72
2022/01/11 11:22:30;;;;;;;;;;;9.30;99.90;;;;;;5018000;28;20423;-72
2022/01/11 11:24:56;;;;;;;;;;;9.30;99.90;;;;;;5018087;28;19921;-72
2022/01/11 11:27:23;;;;;;;;;;;9.30;99.90;;;;;;5018531;28;19913;-72
2022/01/11 11:29:49;;;;;;;;;;;9.40;99.90;;;;;;5018172;28;19960;-72
2022/01/11 11:32:19;;;;;;;;;;;9.40;99.90;;;;;;5023080;28;19909;-72
2022/01/11 11:34:45;;;;;;;;;;;9.40;99.90;;;;;;5019191;28;19952;-72
2022/01/11 11:37:11;;;;;;;;;;;9.40;99.90;;;;;;5018212;28;19909;-72
2022/01/11 11:39:38;;;;;;;;;;;9.40;99.90;;;;;;5017968;28;20012;-72
2022/01/11 11:42:04;;;;;;;;;;;9.40;99.90;;;;;;5018090;28;19910;-72
2022/01/11 11:44:36;;;;;;;;;;;9.40;99.90;;;;;;5018376;28;20381;-72
2022/01/11 11:47:05;;;;;;;;;;;9.40;99.90;;;;;;5026227;28;19976;-72
2022/01/11 11:49:48;;;;;;;;;;;9.40;99.90;;;;;;5005488;28;19910;-72
2022/01/11 11:52:34;;;;;;;;;;;9.40;99.90;;;;;;5017749;28;19936;-72
2022/01/11 11:55:05;;;;;;;;;;;9.40;99.90;;;;;;5017904;28;19913;-72
2022/01/11 11:57:33;;;;;;;;;;;9.40;99.90;;;;;;5018164;28;19917;-72
2022/01/11 12:00:05;;;;;;;;;;;9.50;99.90;;;;;;5017974;28;19914;-72
2022/01/11 12:02:40;;;;;;;;;;;9.50;99.90;;;;;;5018184;28;19969;-72
2022/01/11 12:05:09;;;;;;;;;;;9.50;99.90;;;;;;5017935;28;20285;-72
2022/01/11 12:07:52;;;;;;;;;;;9.50;99.90;;;;;;5017566;28;20384;-72
2022/01/11 12:10:29;;;;;;;;;;;9.50;99.90;;;;;;5017750;28;19929;-72
2022/01/11 12:12:55;;;;;;;;;;;9.50;99.90;;;;;;5017768;28;19910;-72
2022/01/11 12:15:21;;;;;;;;;;;9.50;99.90;;;;;;5017644;28;19913;-72
2022/01/11 12:17:47;;;;;;;;;;;9.50;99.90;;;;;;5017881;28;19917;-72
2022/01/11 12:20:32;;;;;;;;;;;9.50;99.90;;;;;;5017946;28;19952;-72
2022/01/11 12:22:58;;;;;;;;;;;9.50;99.90;;;;;;5017513;28;19991;-72
2022/01/11 12:25:28;;;;;;;;;;;9.50;99.90;;;;;;5017560;28;19921;-72
2022/01/11 12:28:01;;;;;;;;;;;9.50;99.90;;;;;;5017610;28;19956;-72
2022/01/11 12:30:27;;;;;;;;;;;9.50;99.90;;;;;;5018031;28;19909;-72
2022/01/11 12:33:06;;;;;;;;;;;9.60;99.90;;;;;;5026977;28;19916;-72
2022/01/11 12:35:31;;;;;;;;;;;9.60;99.90;;;;;;5021483;28;19920;-72
2022/01/11 12:38:07;;;;;;;;;;;9.70;99.90;;;;;;5021091;28;20000;-72
2022/01/11 12:40:40;;;;;;;;;;;9.70;99.90;;;;;;5021338;28;19910;-72
2022/01/11 12:43:07;;;;;;;;;;;9.80;99.90;;;;;;5021382;28;19909;-72
2022/01/11 12:45:51;;;;;;;;;;;9.80;99.90;;;;;;5021383;28;19940;-72
2022/01/11 12:48:36;;;;;;;;;;;9.80;99.90;;;;;;5029362;28;19909;-72
2022/01/11 12:51:02;;;;;;;;;;;9.80;99.90;;;;;;5021076;28;20343;-72
2022/01/11 12:53:28;;;;;;;;;;;9.80;99.90;;;;;;5020780;28;19913;-72
2022/01/11 12:55:57;;;;;;;;;;;9.80;99.90;;;;;;5020820;28;20000;-72
2022/01/11 12:58:24;;;;;;;;;;;9.80;99.90;;;;;;5021297;28;19909;-72
2022/01/11 13:00:50;;;;;;;;;;;9.80;99.90;;;;;;5021270;28;19910;-72
2022/01/11 13:03:16;;;;;;;;;;;9.80;99.90;;;;;;5021200;28;19977;-72
2022/01/11 13:05:43;;;;;;;;;;;9.80;99.90;;;;;;5020972;28;20396;-72
2022/01/11 13:08:09;;;;;;;;;;;9.80;99.90;;;;;;5020582;28;19960;-72
2022/01/11 13:10:34;;;;;;;;;;;9.80;99.80;;;;;;5020719;28;19959;-72
2022/01/11 13:13:10;;;;;;;;;;;9.80;99.80;;;;;;5021148;28;19913;-72
2022/01/11 13:15:48;;;;;;;;;;;9.80;99.80;;;;;;5020976;28;19913;-72
2022/01/11 13:18:15;;;;;;;;;;;9.70;99.70;;;;;;5020798;28;19920;-72
2022/01/11 13:20:44;;;;;;;;;;;9.70;99.70;;;;;;5020931;28;19909;-72
2022/01/11 13:23:16;;;;;;;;;;;9.70;99.80;;;;;;5020236;28;19949;-72
2022/01/11 13:25:41;;;;;;;;;;;9.70;99.80;;;;;;5019143;28;19957;-72
2022/01/11 13:28:07;;;;;;;;;;;9.60;99.80;;;;;;5020561;28;19916;-72
2022/01/11 13:30:40;;;;;;;;;;;9.70;99.90;;;;;;5020666;28;19917;-72
2022/01/11 13:33:06;;;;;;;;;;;9.70;99.90;;;;;;5026767;28;19967;-72
2022/01/11 13:35:32;;;;;;;;;;;9.70;99.90;;;;;;5020466;28;20328;-72
2022/01/11 13:38:07;;;;;;;;;;;9.70;99.90;;;;;;5019931;28;19916;-72
2022/01/11 13:40:32;;;;;;;;;;;9.80;99.90;;;;;;5020196;28;19909;-72
2022/01/11 13:43:02;;;;;;;;;;;9.80;99.90;;;;;;5019862;28;19920;-72
2022/01/11 13:45:37;;;;;;;;;;;9.80;99.90;;;;;;5020556;28;19910;-72
2022/01/11 13:48:10;;;;;;;;;;;9.80;99.90;;;;;;5028117;28;19917;-72
2022/01/11 13:50:46;;;;;;;;;;;9.80;99.90;;;;;;5020182;28;19909;-72
2022/01/11 13:53:21;;;;;;;;;;;9.80;99.90;;;;;;5019849;28;19917;-72
2022/01/11 13:55:48;;;;;;;;;;;9.80;99.90;;;;;;5019679;28;19920;-72
2022/01/11 13:58:17;;;;;;;;;;;9.90;99.80;;;;;;5020155;28;19916;-72
2022/01/11 14:00:43;;;;;;;;;;;9.90;99.80;;;;;;5019785;28;19910;-72
2022/01/11 14:03:14;;;;;;;;;;;9.80;99.70;;;;;;5020276;28;19920;-72
2022/01/11 14:05:40;;;;;;;;;;;9.80;99.70;;;;;;5019654;28;19909;-72
2022/01/11 14:08:09;;;;;;;;;;;9.80;99.70;;;;;;5019666;28;19910;-72
2022/01/11 14:10:37;;;;;;;;;;;9.90;99.70;;;;;;5019903;28;19992;-72
2022/01/11 14:13:05;;;;;;;;;;;9.90;99.80;;;;;;5019728;28;19909;-72
2022/01/11 14:15:30;;;;;;;;;;;9.90;99.80;;;;;;5019734;28;19913;-72
2022/01/11 14:17:56;;;;;;;;;;;9.90;99.90;;;;;;5019691;28;20391;-72
2022/01/11 14:20:29;;;;;;;;;;;10.00;99.90;;;;;;5019665;28;19910;-72
2022/01/11 14:22:58;;;;;;;;;;;10.00;99.80;;;;;;5019320;28;20291;-72
2022/01/11 14:25:35;;;;;;;;;;;10.00;99.80;;;;;;5019199;28;19921;-72
2022/01/11 14:28:09;;;;;;;;;;;10.00;99.70;;;;;;5019209;28;19977;-72
2022/01/11 14:30:35;;;;;;;;;;;10.00;99.60;;;;;;5019648;28;19916;-72
2022/01/11 14:33:00;;;;;;;;;;;10.00;99.40;;;;;;5025065;28;19910;-72